createdAt,value
2022-12-10T00:04:38.917Z,9.02
2022-12-10T00:07:41.698Z,9.50
2022-12-10T00:10:44.593Z,8.73
2022-12-10T00:13:49.193Z,9.25
2022-12-10T00:16:51.949Z,9.45
2022-12-10T00:19:54.713Z,9.75
2022-12-10T00:22:57.431Z,7.18
2022-12-10T00:26:09.002Z,9.30
2022-12-10T00:29:13.344Z,9.07
2022-12-10T00:32:16.098Z,9.10
2022-12-10T00:35:18.856Z,9.40
2022-12-10T00:38:21.568Z,9.55
2022-12-10T00:41:24.609Z,8.95
2022-12-10T00:44:27.475Z,9.07
2022-12-10T00:47:30.261Z,8.90
2022-12-10T00:50:35.055Z,9.07
2022-12-10T00:53:41.259Z,8.93
2022-12-10T00:56:43.995Z,8.55
2022-12-10T00:59:46.804Z,8.07
2022-12-10T01:02:49.575Z,8.82
2022-12-10T01:05:53.525Z,9.45
2022-12-10T01:08:59.041Z,8.48
2022-12-10T01:12:03.848Z,8.05
2022-12-10T01:15:06.950Z,7.72
2022-12-10T01:18:09.685Z,6.75
2022-12-10T01:21:15.566Z,7.30
2022-12-10T01:24:18.287Z,7.20
2022-12-10T01:27:21.144Z,7.50
2022-12-10T01:33:27.054Z,6.75
2022-12-10T01:36:33.902Z,7.45
2022-12-10T01:39:36.625Z,8.15
2022-12-10T01:42:39.428Z,8.23
2022-12-10T01:45:43.056Z,7.93
2022-12-10T01:48:45.789Z,8.45
2022-12-10T01:51:51.831Z,8.75
2022-12-10T01:54:54.599Z,9.55
2022-12-10T01:57:57.486Z,7.85
2022-12-10T02:01:09.846Z,9.25
2022-12-10T02:04:26.491Z,9.20
2022-12-10T02:07:28.850Z,10.05
2022-12-10T02:10:47.410Z,9.20
2022-12-10T02:14:01.774Z,9.93
2022-12-10T02:17:12.829Z,9.65
2022-12-10T02:20:32.785Z,9.25
2022-12-10T02:23:43.854Z,9.55
2022-12-10T02:27:07.648Z,10.30
2022-12-10T02:30:11.431Z,9.65
2022-12-10T02:33:15.431Z,10.50
2022-12-10T02:36:21.577Z,9.63
2022-12-10T02:39:32.694Z,10.82
2022-12-10T02:42:39.870Z,10.68
2022-12-10T02:45:44.822Z,10.23
2022-12-10T02:48:51.157Z,9.55
2022-12-10T02:51:54.311Z,9.40
2022-12-10T02:54:58.555Z,8.75
2022-12-10T02:58:16.960Z,8.65
2022-12-10T03:01:46.016Z,7.20
2022-12-10T03:04:55.360Z,7.12
2022-12-10T03:08:12.763Z,5.87
2022-12-10T03:11:20.662Z,4.75
2022-12-10T03:14:28.932Z,5.20
2022-12-10T03:17:33.322Z,5.28
2022-12-10T03:20:40.546Z,5.28
2022-12-10T03:23:46.743Z,5.35
2022-12-10T03:26:51.095Z,5.68
2022-12-10T03:29:57.234Z,5.40
2022-12-10T03:33:01.105Z,5.20
2022-12-10T03:36:04.447Z,4.20
2022-12-10T03:39:08.390Z,4.00
2022-12-10T03:45:14.766Z,4.53
2022-12-10T03:48:17.411Z,4.78
2022-12-10T03:51:20.959Z,5.78
2022-12-10T03:54:23.543Z,5.65
2022-12-10T03:57:26.660Z,5.03
2022-12-10T04:00:29.209Z,5.47
2022-12-10T04:03:37.209Z,5.80
2022-12-10T04:06:41.695Z,6.72
2022-12-10T04:09:44.840Z,6.28
2022-12-10T04:13:07.284Z,6.90
2022-12-10T04:16:28.409Z,6.50
2022-12-10T04:19:31.046Z,6.62
2022-12-10T04:22:52.441Z,6.70
2022-12-10T04:26:13.797Z,6.30
2022-12-10T04:29:17.183Z,5.47
2022-12-10T04:32:20.873Z,5.95
2022-12-10T04:35:24.040Z,5.65
2022-12-10T04:38:26.427Z,6.07
2022-12-10T04:41:29.509Z,6.60
2022-12-10T04:44:32.616Z,7.35
2022-12-10T04:50:37.851Z,5.50
2022-12-10T04:53:40.889Z,6.00
2022-12-10T04:56:44.197Z,6.05
2022-12-10T04:59:47.697Z,6.30
2022-12-10T05:02:50.786Z,6.53
2022-12-10T05:05:53.819Z,6.10
2022-12-10T05:08:56.954Z,6.53
2022-12-10T05:12:00.041Z,7.03
2022-12-10T05:15:02.566Z,6.97
2022-12-10T05:18:05.655Z,8.80
2022-12-10T05:21:12.000Z,8.87
2022-12-10T05:24:16.343Z,9.30
2022-12-10T05:27:18.801Z,9.20
2022-12-10T05:30:21.858Z,9.05
2022-12-10T05:33:25.315Z,9.87
2022-12-10T05:36:31.630Z,9.55
2022-12-10T05:39:34.090Z,9.52
2022-12-10T05:42:39.538Z,10.57
2022-12-10T05:45:42.264Z,11.85
2022-12-10T05:48:45.592Z,10.60
2022-12-10T05:51:48.104Z,10.30
2022-12-10T05:54:51.194Z,12.48
2022-12-10T05:57:53.956Z,11.80
2022-12-10T06:00:58.425Z,12.02
2022-12-10T06:04:03.029Z,11.90
2022-12-10T06:07:10.928Z,12.35
2022-12-10T06:10:14.003Z,12.75
2022-12-10T06:13:16.802Z,12.90
2022-12-10T06:16:19.575Z,13.07
2022-12-10T06:19:22.359Z,13.20
2022-12-10T06:22:25.087Z,13.77
2022-12-10T06:25:27.803Z,12.60
2022-12-10T06:28:30.527Z,13.05
2022-12-10T06:31:33.895Z,13.32
2022-12-10T06:34:42.632Z,13.20
2022-12-10T06:37:45.644Z,13.45
2022-12-10T06:40:48.387Z,13.38
2022-12-10T06:43:51.149Z,12.80
2022-12-10T06:46:54.059Z,13.62
2022-12-10T06:49:56.848Z,12.77
2022-12-10T06:52:59.547Z,11.63
2022-12-10T06:56:03.137Z,10.98
2022-12-10T06:59:09.777Z,10.48
2022-12-10T07:02:12.796Z,10.60
2022-12-10T07:05:15.813Z,10.35
2022-12-10T07:08:20.419Z,11.60
2022-12-10T07:11:25.115Z,11.50
2022-12-10T07:14:27.834Z,10.63
2022-12-10T07:17:30.933Z,12.60
2022-12-10T07:20:33.661Z,13.25
2022-12-10T07:23:36.362Z,12.35
2022-12-10T07:26:41.415Z,13.27
2022-12-10T07:29:45.417Z,13.23
2022-12-10T07:32:48.170Z,17.08
2022-12-10T07:35:50.876Z,18.75
2022-12-10T07:38:55.185Z,15.55
2022-12-10T07:41:57.954Z,13.32
2022-12-10T07:45:00.726Z,14.57
2022-12-10T07:48:03.688Z,14.87
2022-12-10T07:51:06.619Z,14.40
2022-12-10T07:54:09.332Z,14.63
2022-12-10T07:57:12.357Z,16.95
2022-12-10T08:00:17.736Z,16.50
2022-12-10T08:03:20.972Z,16.48
2022-12-10T08:06:25.068Z,14.00
2022-12-10T08:09:29.622Z,13.60
2022-12-10T08:12:32.175Z,14.13
2022-12-10T08:15:35.320Z,14.80
2022-12-10T08:18:38.096Z,15.40
2022-12-10T08:21:41.186Z,14.30
2022-12-10T08:24:43.765Z,14.03
2022-12-10T08:27:46.795Z,14.25
2022-12-10T08:30:49.649Z,14.33
2022-12-10T08:33:53.503Z,13.23
2022-12-10T08:36:56.098Z,14.60
2022-12-10T08:39:59.063Z,13.62
2022-12-10T08:43:01.556Z,14.20
2022-12-10T08:46:05.391Z,16.55
2022-12-10T08:49:08.223Z,14.80
2022-12-10T08:55:13.814Z,15.50
2022-12-10T08:58:16.841Z,15.38
2022-12-10T09:01:20.404Z,14.97
2022-12-10T09:04:23.547Z,15.95
2022-12-10T09:07:26.215Z,15.87
2022-12-10T09:10:29.465Z,14.05
2022-12-10T09:13:32.027Z,14.90
2022-12-10T09:16:37.819Z,15.25
2022-12-10T09:19:41.382Z,14.45
2022-12-10T09:22:44.484Z,13.90
2022-12-10T09:25:47.164Z,14.07
2022-12-10T09:28:52.766Z,13.88
2022-12-10T09:31:55.947Z,17.30
2022-12-10T09:34:59.258Z,13.85
2022-12-10T09:38:01.807Z,12.45
2022-12-10T09:41:18.363Z,14.93
2022-12-10T09:44:37.211Z,13.13
2022-12-10T09:47:55.852Z,13.55
2022-12-10T09:51:18.449Z,14.13
2022-12-10T09:54:35.121Z,13.52
2022-12-10T09:57:45.291Z,14.43
2022-12-10T10:00:52.841Z,24.50
2022-12-10T10:03:55.659Z,14.35
2022-12-10T10:06:58.820Z,13.20
2022-12-10T10:10:06.169Z,13.00
2022-12-10T10:13:09.054Z,14.45
2022-12-10T10:16:28.854Z,14.60
2022-12-10T10:19:36.824Z,14.95
2022-12-10T10:22:41.556Z,13.00
2022-12-10T10:25:45.572Z,13.05
2022-12-10T10:28:52.715Z,12.68
2022-12-10T10:32:16.333Z,14.35
2022-12-10T10:35:27.023Z,14.52
2022-12-10T10:38:31.020Z,15.43
2022-12-10T10:41:40.756Z,15.63
2022-12-10T10:44:43.612Z,15.60
2022-12-10T10:47:46.407Z,14.13
2022-12-10T10:51:09.675Z,17.40
2022-12-10T10:54:12.716Z,16.20
2022-12-10T10:57:34.518Z,17.10
2022-12-10T11:00:37.282Z,15.95
2022-12-10T11:03:48.536Z,16.10
2022-12-10T11:06:54.570Z,14.75
2022-12-10T11:10:00.548Z,15.55
2022-12-10T11:13:05.427Z,14.70
2022-12-10T11:16:26.079Z,15.38
2022-12-10T11:19:29.003Z,14.13
2022-12-10T11:22:34.321Z,13.93
2022-12-10T11:25:57.568Z,16.00
2022-12-10T11:29:18.458Z,16.08
2022-12-10T11:32:35.207Z,14.93
2022-12-10T11:35:40.613Z,15.30
2022-12-10T11:38:53.686Z,17.85
2022-12-10T11:42:25.474Z,16.10
2022-12-10T11:46:07.207Z,18.25
2022-12-10T11:49:19.121Z,20.37
2022-12-10T11:52:43.252Z,19.83
2022-12-10T11:56:15.298Z,18.98
2022-12-10T12:00:04.135Z,21.55
2022-12-10T12:03:17.259Z,20.67
2022-12-10T12:06:36.076Z,21.20
2022-12-10T12:09:56.852Z,28.17
2022-12-10T12:13:18.399Z,25.17
2022-12-10T12:16:29.720Z,24.15
2022-12-10T12:19:40.224Z,22.98
2022-12-10T12:22:48.398Z,23.65
2022-12-10T12:25:58.669Z,24.70
2022-12-10T12:29:22.557Z,26.60
2022-12-10T12:32:37.366Z,24.98
2022-12-10T12:35:44.897Z,24.75
2022-12-10T12:39:12.765Z,23.45
2022-12-10T12:42:50.597Z,24.92
2022-12-10T12:45:55.299Z,23.08
2022-12-10T12:49:15.218Z,22.85
2022-12-10T12:52:30.538Z,23.48
2022-12-10T12:55:44.811Z,24.77
2022-12-10T12:59:13.646Z,20.75
2022-12-10T13:02:54.025Z,25.73
2022-12-10T13:06:18.033Z,23.42
2022-12-10T13:09:27.861Z,25.40
2022-12-10T13:12:32.963Z,22.85
2022-12-10T13:15:40.186Z,23.58
2022-12-10T13:18:43.090Z,23.80
2022-12-10T13:21:51.858Z,24.92
2022-12-10T13:25:12.406Z,23.95
2022-12-10T13:28:27.341Z,28.05
2022-12-10T13:31:49.035Z,25.27
2022-12-10T13:35:17.844Z,23.20
2022-12-10T13:38:23.875Z,22.95
2022-12-10T13:41:45.356Z,24.87
2022-12-10T13:44:51.227Z,22.02
2022-12-10T13:48:14.277Z,22.98
2022-12-10T13:51:26.632Z,22.57
2022-12-10T13:55:04.273Z,23.85
2022-12-10T13:58:20.237Z,22.20
2022-12-10T14:01:38.689Z,21.58
2022-12-10T14:05:01.662Z,20.50
2022-12-10T14:08:06.296Z,20.02
2022-12-10T14:11:23.736Z,19.85
2022-12-10T14:14:39.498Z,21.65
2022-12-10T14:17:44.412Z,21.25
2022-12-10T14:20:51.627Z,20.17
2022-12-10T14:23:56.711Z,17.33
2022-12-10T14:27:12.722Z,18.90
2022-12-10T14:30:22.607Z,20.12
2022-12-10T14:33:26.407Z,19.58
2022-12-10T14:36:33.437Z,19.35
2022-12-10T14:39:39.575Z,19.20
2022-12-10T14:42:42.471Z,20.37
2022-12-10T14:45:58.305Z,19.50
2022-12-10T14:49:01.382Z,18.75
2022-12-10T14:52:09.968Z,19.20
2022-12-10T14:55:19.616Z,19.65
2022-12-10T14:58:46.599Z,18.95
2022-12-10T15:01:57.152Z,19.62
2022-12-10T15:05:00.643Z,18.40
2022-12-10T15:11:21.075Z,17.55
2022-12-10T15:14:25.697Z,18.05
2022-12-10T15:17:45.288Z,17.25
2022-12-10T15:20:52.585Z,17.30
2022-12-10T15:24:27.358Z,23.40
2022-12-10T15:27:30.339Z,19.15
2022-12-10T15:30:36.420Z,17.45
2022-12-10T15:33:54.693Z,17.55
2022-12-10T15:37:03.085Z,16.67
2022-12-10T15:40:20.754Z,16.92
2022-12-10T15:43:23.516Z,16.70
2022-12-10T15:46:26.616Z,16.95
2022-12-10T15:49:30.654Z,16.12
2022-12-10T15:52:33.817Z,17.33
2022-12-10T15:55:36.579Z,15.82
2022-12-10T15:58:43.124Z,17.17
2022-12-10T16:01:46.998Z,15.90
2022-12-10T16:04:49.815Z,15.20
2022-12-10T16:07:56.266Z,16.33
2022-12-10T16:11:03.491Z,17.00
2022-12-10T16:14:07.532Z,15.63
2022-12-10T16:17:13.096Z,17.15
2022-12-10T16:20:19.668Z,15.30
2022-12-10T16:23:22.572Z,15.05
2022-12-10T16:26:25.475Z,15.95
2022-12-10T16:29:28.239Z,16.75
2022-12-10T16:32:30.972Z,17.77
2022-12-10T16:35:33.750Z,17.35
2022-12-10T16:38:36.489Z,16.27
2022-12-10T16:41:39.634Z,14.82
2022-12-10T16:44:42.428Z,16.33
2022-12-10T16:47:45.309Z,15.80
2022-12-10T16:50:50.384Z,17.17
2022-12-10T16:53:53.157Z,15.20
2022-12-10T16:56:55.905Z,16.45
2022-12-10T16:59:58.692Z,18.27
2022-12-10T17:03:07.794Z,24.12
2022-12-10T17:06:12.904Z,19.98
2022-12-10T17:09:15.999Z,16.30
2022-12-10T17:12:19.179Z,16.65
2022-12-10T17:15:21.879Z,15.52
2022-12-10T17:18:24.982Z,16.73
2022-12-10T17:21:27.894Z,17.10
2022-12-10T17:24:31.444Z,16.58
2022-12-10T17:27:38.893Z,17.10
2022-12-10T17:30:42.669Z,16.52
2022-12-10T17:33:51.511Z,16.35
2022-12-10T17:36:55.098Z,16.62
2022-12-10T17:39:57.823Z,16.40
2022-12-10T17:43:00.525Z,15.88
2022-12-10T17:46:03.467Z,17.15
2022-12-10T17:49:07.014Z,15.43
2022-12-10T17:55:12.618Z,15.27
2022-12-10T17:58:15.948Z,15.55
2022-12-10T18:01:20.084Z,15.73
2022-12-10T18:04:23.126Z,15.35
2022-12-10T18:07:25.607Z,14.60
2022-12-10T18:10:32.220Z,13.82
2022-12-10T18:13:34.680Z,14.85
2022-12-10T18:16:38.470Z,15.00
2022-12-10T18:19:44.295Z,13.73
2022-12-10T18:22:48.207Z,12.35
2022-12-10T18:25:51.102Z,12.20
2022-12-10T18:31:58.061Z,12.05
2022-12-10T18:35:01.068Z,12.77
2022-12-10T18:38:03.864Z,12.60
2022-12-10T18:41:11.234Z,11.77
2022-12-10T18:44:17.106Z,11.18
2022-12-10T18:47:20.182Z,16.25
2022-12-10T18:50:25.776Z,15.13
2022-12-10T18:53:28.815Z,13.55
2022-12-10T18:56:32.908Z,11.35
2022-12-10T18:59:36.077Z,10.50
2022-12-10T19:02:43.619Z,11.63
2022-12-10T19:05:46.990Z,11.20
2022-12-10T19:12:13.714Z,10.52
2022-12-10T19:15:18.848Z,11.15
2022-12-10T19:18:21.935Z,9.85
2022-12-10T19:21:24.477Z,9.77
2022-12-10T19:24:27.507Z,10.23
2022-12-10T19:27:29.945Z,11.10
2022-12-10T19:30:33.213Z,10.73
2022-12-10T19:33:35.807Z,10.20
2022-12-10T19:36:40.344Z,9.38
2022-12-10T19:39:42.958Z,9.82
2022-12-10T19:42:46.244Z,9.65
2022-12-10T19:45:48.736Z,10.05
2022-12-10T19:48:52.047Z,9.15
2022-12-10T19:51:54.535Z,9.85
2022-12-10T19:54:57.770Z,9.10
2022-12-10T19:58:00.372Z,10.40
2022-12-10T20:01:07.047Z,11.02
2022-12-10T20:04:10.111Z,9.60
2022-12-10T20:07:13.116Z,9.57
2022-12-10T20:10:22.123Z,9.05
2022-12-10T20:13:25.100Z,8.98
2022-12-10T20:16:30.045Z,8.10
2022-12-10T20:19:33.709Z,9.43
2022-12-10T20:22:36.660Z,8.35
2022-12-10T20:25:42.051Z,9.25
2022-12-10T20:28:46.697Z,8.73
2022-12-10T20:31:51.621Z,9.05
2022-12-10T20:34:54.372Z,12.77
2022-12-10T20:37:58.699Z,8.98
2022-12-10T20:41:01.515Z,7.53
2022-12-10T20:44:04.519Z,7.47
2022-12-10T20:47:09.904Z,7.65
2022-12-10T20:50:16.764Z,7.30
2022-12-10T20:53:19.628Z,6.90
2022-12-10T20:56:24.711Z,6.70
2022-12-10T20:59:31.324Z,6.55
2022-12-10T21:02:34.395Z,7.25
2022-12-10T21:05:37.261Z,10.32
2022-12-10T21:08:40.103Z,7.93
2022-12-10T21:11:42.870Z,7.57
2022-12-10T21:14:54.060Z,7.25
2022-12-10T21:17:59.849Z,6.68
2022-12-10T21:21:03.157Z,5.97
2022-12-10T21:24:06.395Z,6.57
2022-12-10T21:27:09.196Z,5.97
2022-12-10T21:30:13.053Z,6.30
2022-12-10T21:33:22.884Z,6.28
2022-12-10T21:36:26.205Z,5.60
2022-12-10T21:39:28.999Z,5.97
2022-12-10T21:42:50.121Z,6.03
2022-12-10T21:45:55.969Z,5.93
2022-12-10T21:48:58.980Z,5.68
2022-12-10T21:52:01.693Z,5.82
2022-12-10T21:55:05.583Z,5.55
2022-12-10T21:58:08.445Z,5.90
2022-12-10T22:01:14.260Z,5.72
2022-12-10T22:04:17.865Z,7.22
2022-12-10T22:07:20.484Z,8.05
2022-12-10T22:10:23.722Z,6.47
2022-12-10T22:13:26.183Z,6.10
2022-12-10T22:16:29.432Z,5.82
2022-12-10T22:19:31.977Z,7.12
2022-12-10T22:22:35.347Z,7.10
2022-12-10T22:25:41.541Z,7.15
2022-12-10T22:28:44.981Z,6.87
2022-12-10T22:31:47.580Z,9.07
2022-12-10T22:34:53.687Z,8.55
2022-12-10T22:37:56.173Z,6.80
2022-12-10T22:41:02.333Z,6.87
2022-12-10T22:44:05.015Z,7.00
2022-12-10T22:47:08.354Z,7.28
2022-12-10T22:50:11.194Z,5.93
2022-12-10T22:56:16.870Z,5.82
2022-12-10T23:02:22.596Z,5.20
2022-12-10T23:08:31.281Z,6.45
2022-12-10T23:11:34.504Z,5.80
2022-12-10T23:14:36.989Z,5.10
2022-12-10T23:17:40.020Z,5.15
2022-12-10T23:20:49.249Z,6.00
2022-12-10T23:23:54.604Z,5.30
2022-12-10T23:26:57.093Z,5.25
2022-12-10T23:30:00.164Z,5.12
2022-12-10T23:33:08.216Z,4.67
2022-12-10T23:36:12.061Z,4.60
2022-12-10T23:39:15.161Z,4.80
2022-12-10T23:42:18.127Z,5.20
2022-12-10T23:45:23.573Z,5.05
2022-12-10T23:48:26.721Z,4.30
2022-12-10T23:51:29.327Z,4.17
2022-12-10T23:54:33.504Z,4.50
2022-12-10T23:57:36.588Z,5.43
